createdAt,value
2022-09-20T00:00:36.896Z,99
2022-09-20T00:10:37.344Z,99
2022-09-20T00:20:37.367Z,99
2022-09-20T00:30:37.615Z,99
2022-09-20T00:40:37.856Z,99
2022-09-20T00:50:37.528Z,99
2022-09-20T01:00:42.693Z,99
2022-09-20T01:10:37.415Z,99
2022-09-20T01:20:42.430Z,99
2022-09-20T01:30:38.986Z,99
2022-09-20T01:40:37.799Z,99
2022-09-20T01:50:55.167Z,99
2022-09-20T02:00:37.651Z,99
2022-09-20T02:10:38.122Z,99
2022-09-20T02:20:52.908Z,99
2022-09-20T02:30:37.958Z,99
2022-09-20T02:40:49.059Z,99
2022-09-20T02:50:38.268Z,99
2022-09-20T03:00:37.704Z,99
2022-09-20T03:10:59.504Z,99
2022-09-20T03:20:50.530Z,99
2022-09-20T03:31:00.398Z,99
2022-09-20T03:40:51.956Z,99
2022-09-20T03:50:41.068Z,99
2022-09-20T04:00:41.032Z,99
2022-09-20T04:10:41.035Z,99
2022-09-20T04:16:45.797Z,99
2022-09-20T04:20:33.994Z,99
2022-09-20T04:22:10.320Z,99
2022-09-20T04:24:05.003Z,99
2022-09-20T04:26:34.544Z,99
2022-09-20T04:31:34.336Z,99
2022-09-20T04:34:02.928Z,99
2022-09-20T04:40:41.068Z,99
2022-09-20T04:47:01.474Z,99
2022-09-20T04:50:41.032Z,99
2022-09-20T05:00:47.803Z,99
2022-09-20T05:10:41.208Z,99
2022-09-20T05:20:41.147Z,99
2022-09-20T05:30:41.395Z,99
2022-09-20T05:40:41.037Z,99
2022-09-20T05:50:41.416Z,99
2022-09-20T06:00:41.800Z,99
2022-09-20T06:10:41.725Z,99
2022-09-20T06:20:43.328Z,99
2022-09-20T06:30:46.194Z,99
2022-09-20T06:40:41.186Z,99
2022-09-20T06:50:46.431Z,99
2022-09-20T07:00:46.319Z,99
2022-09-20T07:10:46.183Z,99
2022-09-20T07:20:46.873Z,99
2022-09-20T07:30:46.671Z,99
2022-09-20T07:40:41.662Z,99
2022-09-20T07:50:42.351Z,99
2022-09-20T08:00:47.268Z,99
2022-09-20T08:10:42.278Z,99
2022-09-20T08:20:42.284Z,99
2022-09-20T08:30:42.286Z,99
2022-09-20T08:40:42.789Z,99
2022-09-20T08:50:47.955Z,99
2022-09-20T09:00:42.307Z,99
2022-09-20T09:03:44.131Z,99
2022-09-20T09:10:42.816Z,99
2022-09-20T09:20:47.936Z,99
2022-09-20T09:30:43.786Z,99
2022-09-20T09:40:43.454Z,97
2022-09-20T09:50:43.164Z,93
2022-09-20T10:00:42.531Z,94
2022-09-20T10:10:42.507Z,90
2022-09-20T10:20:42.662Z,87
2022-09-20T10:30:43.247Z,96
2022-09-20T10:40:48.276Z,99
2022-09-20T10:50:42.582Z,99
2022-09-20T11:00:42.949Z,99
2022-09-20T11:10:42.797Z,99
2022-09-20T11:20:42.721Z,99
2022-09-20T11:30:42.745Z,99
2022-09-20T11:40:42.951Z,99
2022-09-20T11:50:52.565Z,99
2022-09-20T12:00:48.626Z,99
2022-09-20T12:10:49.256Z,99
2022-09-20T12:16:10.950Z,99
2022-09-20T12:22:42.172Z,99
2022-09-20T12:24:15.068Z,99
2022-09-20T12:27:11.485Z,99
2022-09-20T12:29:49.208Z,99
2022-09-20T12:31:17.594Z,99
2022-09-20T12:32:31.701Z,99
2022-09-20T12:35:58.637Z,99
2022-09-20T12:38:25.355Z,99
2022-09-20T12:41:28.458Z,99
2022-09-20T12:43:39.164Z,99
2022-09-20T12:49:49.890Z,99
2022-09-20T12:52:39.736Z,99
2022-09-20T12:55:00.652Z,99
2022-09-20T13:00:04.434Z,99
2022-09-20T13:02:31.584Z,99
2022-09-20T13:05:36.076Z,99
2022-09-20T13:10:50.162Z,99
2022-09-20T13:20:59.286Z,99
2022-09-20T13:30:59.288Z,94
2022-09-20T13:41:00.554Z,87
2022-09-20T13:50:59.690Z,84
2022-09-20T14:01:01.127Z,85
2022-09-20T14:11:01.094Z,93
2022-09-20T14:21:01.287Z,95
2022-09-20T14:31:01.285Z,98
2022-09-20T14:41:01.659Z,99
2022-09-20T14:45:30.068Z,99
2022-09-20T14:51:01.628Z,98
2022-09-20T15:01:01.276Z,99
2022-09-20T15:11:03.726Z,99
2022-09-20T15:21:01.623Z,99
2022-09-20T15:31:02.479Z,99
2022-09-20T15:41:01.612Z,99
2022-09-20T15:51:01.610Z,99
2022-09-20T16:01:09.225Z,99
2022-09-20T16:11:01.788Z,99
2022-09-20T16:21:02.419Z,99
2022-09-20T16:31:08.838Z,99
2022-09-20T16:41:26.329Z,99
2022-09-20T16:51:23.518Z,99
2022-09-20T17:01:05.381Z,99
2022-09-20T17:11:10.233Z,99
2022-09-20T17:21:05.389Z,99
2022-09-20T17:31:05.344Z,99
2022-09-20T17:41:05.364Z,99
2022-09-20T17:51:12.316Z,99
2022-09-20T18:01:18.301Z,99
2022-09-20T18:11:08.815Z,99
2022-09-20T18:21:05.404Z,99
2022-09-20T18:31:05.797Z,99
2022-09-20T18:41:16.622Z,99
2022-09-20T18:51:11.140Z,99
2022-09-20T19:01:05.574Z,99
2022-09-20T19:11:06.730Z,99
2022-09-20T19:21:09.311Z,99
2022-09-20T19:31:09.432Z,99
2022-09-20T19:41:12.253Z,99
2022-09-20T19:51:16.584Z,99
2022-09-20T20:01:15.803Z,99
2022-09-20T20:11:20.375Z,99
2022-09-20T20:21:41.088Z,99
2022-09-20T20:31:09.701Z,99
2022-09-20T20:41:09.530Z,99
2022-09-20T20:47:35.822Z,99
2022-09-20T20:51:20.325Z,99
2022-09-20T21:01:14.223Z,99
2022-09-20T21:11:09.643Z,99
2022-09-20T21:21:09.602Z,99
2022-09-20T21:31:26.768Z,99
2022-09-20T21:41:09.656Z,99
2022-09-20T21:51:09.588Z,99
2022-09-20T21:57:54.066Z,99
2022-09-20T22:01:09.815Z,99
2022-09-20T22:11:14.606Z,99
2022-09-20T22:21:09.686Z,99
2022-09-20T22:31:09.659Z,99
2022-09-20T22:41:10.878Z,99
2022-09-20T22:51:09.648Z,99
2022-09-20T23:01:10.378Z,99
2022-09-20T23:11:12.525Z,99
2022-09-20T23:21:09.711Z,99
2022-09-20T23:31:09.736Z,99
2022-09-20T23:41:12.345Z,99
2022-09-20T23:51:09.726Z,99
